Time;durP1;ratioP1;P1;durP2;ratioP2;P2;SDS_P1;SDS_P2;PMS_P1;PMS_P2;Temp;Humidity;BMP_temperature;BMP_pressure;BME280_temperature;BME280_humidity;BME280_pressure;Samples;Min_cycle;Max_cycle;Signal;HPM_P1;HPM_P2
2022/12/27 00:04:37;;;;;;;2.90;2.70;;;9.30;99.90;;;;;;10316595;28;20713;-82
2022/12/27 00:09:42;;;;;;;4.83;3.20;;;9.30;99.90;;;;;;10319725;28;20796;-81
2022/12/27 00:14:44;;;;;;;3.57;3.20;;;9.10;99.90;;;;;;10315181;28;20200;-82
2022/12/27 00:19:46;;;;;;;2.83;2.70;;;9.10;99.90;;;;;;10277243;28;20227;-82
2022/12/27 00:24:49;;;;;;;6.33;3.80;;;9.10;99.90;;;;;;10286089;28;20199;-81
2022/12/27 00:29:51;;;;;;;4.47;2.70;;;9.10;99.90;;;;;;10300586;28;20338;-82
2022/12/27 00:34:53;;;;;;;3.10;2.90;;;9.00;99.90;;;;;;10283226;28;20223;-82
2022/12/27 00:39:57;;;;;;;4.80;3.10;;;9.00;99.90;;;;;;10317469;28;20219;-81
2022/12/27 00:44:59;;;;;;;2.87;2.67;;;8.90;99.90;;;;;;10318397;28;20218;-82
2022/12/27 00:50:01;;;;;;;3.20;2.90;;;8.90;99.90;;;;;;10407209;23;20335;-81
2022/12/27 00:55:06;;;;;;;2.90;2.63;;;8.90;99.90;;;;;;10337823;28;20217;-81
2022/12/27 01:00:10;;;;;;;4.97;3.17;;;8.80;99.90;;;;;;10345537;28;20216;-81
2022/12/27 01:05:13;;;;;;;2.80;2.60;;;8.80;99.90;;;;;;10320601;28;20217;-81
2022/12/27 01:10:16;;;;;;;2.50;2.40;;;8.80;99.90;;;;;;10352530;28;20215;-82
2022/12/27 01:15:18;;;;;;;3.20;2.90;;;8.80;99.90;;;;;;10311267;28;20192;-82
2022/12/27 01:33:02;;;;;;;4.80;3.20;;;8.70;99.90;;;;;;10345135;28;20250;-82
2022/12/27 01:38:13;;;;;;;2.90;2.70;;;8.70;99.90;;;;;;10196451;29;20282;-82
2022/12/27 01:43:20;;;;;;;5.40;5.00;;;8.60;99.90;;;;;;10360106;28;20207;-80
2022/12/27 01:48:24;;;;;;;3.37;3.17;;;8.60;99.90;;;;;;10330315;28;20299;-81
2022/12/27 01:53:33;;;;;;;3.33;3.03;;;8.50;99.90;;;;;;10317341;28;20249;-82
2022/12/27 01:58:40;;;;;;;5.07;4.57;;;8.50;99.90;;;;;;10326732;28;20318;-82
2022/12/27 02:03:54;;;;;;;2.60;2.40;;;8.50;99.90;;;;;;10331339;28;20199;-82
2022/12/27 02:09:07;;;;;;;3.70;2.97;;;8.40;99.90;;;;;;10323849;28;20224;-81
2022/12/27 02:14:17;;;;;;;2.63;2.50;;;8.30;99.90;;;;;;10316947;28;20230;-81
2022/12/27 02:19:31;;;;;;;2.50;2.40;;;8.20;99.90;;;;;;10313588;28;20710;-81
2022/12/27 02:31:20;;;;;;;2.70;2.50;;;8.10;99.90;;;;;;10372219;28;20251;-82
2022/12/27 02:36:25;;;;;;;2.53;2.33;;;7.80;99.90;;;;;;10309942;28;20671;-81
2022/12/27 02:58:21;;;;;;;2.83;2.63;;;7.30;99.90;;;;;;10302769;28;20224;-81
2022/12/27 03:03:48;;;;;;;3.07;2.57;;;7.10;99.90;;;;;;10300403;28;20199;-81
2022/12/27 03:08:57;;;;;;;3.80;2.60;;;7.00;99.90;;;;;;10299833;28;20258;-81
2022/12/27 03:35:34;;;;;;;2.67;2.43;;;6.40;99.90;;;;;;10336630;28;20281;-82
2022/12/27 03:43:09;;;;;;;3.67;3.33;;;6.40;99.90;;;;;;10340291;28;20211;-80
2022/12/27 03:46:37;;;;;;;3.10;2.90;;;6.40;99.90;;;;;;10316571;28;20281;-81
2022/12/27 03:51:46;;;;;;;3.37;3.10;;;6.40;99.90;;;;;;10364504;28;20222;-81
2022/12/27 03:56:48;;;;;;;3.07;2.73;;;6.30;99.90;;;;;;10364572;28;20215;-81
2022/12/27 04:01:53;;;;;;;4.80;3.40;;;6.30;99.90;;;;;;10355947;23;20707;-82
2022/12/27 04:06:57;;;;;;;4.33;2.97;;;6.40;99.90;;;;;;10352303;28;20194;-82
2022/12/27 04:38:47;;;;;;;3.23;3.00;;;6.60;99.90;;;;;;10348961;28;20232;-82
2022/12/27 04:54:57;;;;;;;3.30;3.03;;;6.50;99.90;;;;;;10343446;28;20261;-82
2022/12/27 05:05:18;;;;;;;3.37;2.60;;;6.50;99.90;;;;;;10344399;28;20219;-81
2022/12/27 05:15:44;;;;;;;3.00;2.60;;;6.50;99.90;;;;;;10319181;28;20194;-81
2022/12/27 05:20:53;;;;;;;3.93;3.63;;;6.40;99.90;;;;;;10316726;28;20226;-81
2022/12/27 05:25:57;;;;;;;2.80;2.57;;;6.30;99.90;;;;;;10339137;28;20200;-81
2022/12/27 05:31:02;;;;;;;3.57;3.07;;;6.20;99.90;;;;;;10321721;28;20858;-82
2022/12/27 05:36:06;;;;;;;2.93;2.70;;;6.20;99.90;;;;;;10341123;28;20655;-82
2022/12/27 05:41:09;;;;;;;2.97;2.70;;;6.10;99.90;;;;;;10340443;28;20221;-82
2022/12/27 05:46:14;;;;;;;3.70;2.70;;;6.10;99.90;;;;;;10349288;28;20538;-81
2022/12/27 05:51:18;;;;;;;3.30;3.00;;;6.20;99.90;;;;;;10344603;28;20221;-82
2022/12/27 05:56:21;;;;;;;3.17;2.87;;;6.20;99.90;;;;;;10333842;28;20207;-81
2022/12/27 06:01:23;;;;;;;3.20;2.90;;;6.20;99.90;;;;;;10320868;28;20608;-83
2022/12/27 06:06:26;;;;;;;3.40;2.90;;;6.20;99.90;;;;;;10340488;28;20203;-82
2022/12/27 06:11:29;;;;;;;3.30;3.00;;;6.10;99.90;;;;;;10322358;28;20227;-82
2022/12/27 06:16:31;;;;;;;5.50;3.27;;;6.00;99.90;;;;;;10320166;28;20246;-82
2022/12/27 06:21:33;;;;;;;3.20;2.90;;;6.00;99.90;;;;;;10306010;28;20215;-82
2022/12/27 06:26:36;;;;;;;4.90;3.80;;;5.90;99.90;;;;;;10340678;28;20203;-82
2022/12/27 06:31:40;;;;;;;3.83;3.53;;;5.90;99.90;;;;;;10344523;28;20688;-82
2022/12/27 06:36:48;;;;;;;3.63;3.30;;;5.80;99.90;;;;;;10320005;28;20210;-82
2022/12/27 06:41:54;;;;;;;3.57;3.27;;;5.80;99.90;;;;;;10299419;28;20219;-81
2022/12/27 06:46:56;;;;;;;3.60;2.93;;;5.90;99.90;;;;;;10316522;28;20214;-81
2022/12/27 06:51:58;;;;;;;3.57;3.10;;;5.90;99.90;;;;;;10334294;28;20220;-81
2022/12/27 06:57:01;;;;;;;3.20;2.90;;;5.90;99.90;;;;;;10315773;28;20667;-81
2022/12/27 07:02:03;;;;;;;3.57;3.27;;;6.00;99.90;;;;;;10299862;28;20207;-81
2022/12/27 07:07:06;;;;;;;5.60;3.80;;;6.00;99.90;;;;;;10335488;28;20277;-82
2022/12/27 07:12:09;;;;;;;3.47;3.17;;;6.00;99.90;;;;;;10347048;23;20769;-78
2022/12/27 07:17:11;;;;;;;3.93;2.87;;;6.00;99.90;;;;;;10301208;28;20572;-80
2022/12/27 07:22:13;;;;;;;2.47;2.27;;;6.00;99.90;;;;;;10334518;28;20578;-80
2022/12/27 07:27:16;;;;;;;3.13;2.93;;;6.00;99.90;;;;;;10336804;28;20238;-80
2022/12/27 07:32:19;;;;;;;3.47;2.83;;;6.00;99.90;;;;;;10333181;28;20679;-80
2022/12/27 07:37:21;;;;;;;2.70;2.50;;;6.10;99.90;;;;;;10314661;28;20196;-79
2022/12/27 07:42:24;;;;;;;3.23;2.93;;;6.10;99.90;;;;;;10318944;28;20302;-81
2022/12/27 07:47:27;;;;;;;4.20;3.30;;;6.10;99.90;;;;;;10330391;28;20562;-77
2022/12/27 07:52:29;;;;;;;1.87;1.43;;;6.20;99.90;;;;;;10332726;28;20699;-80
2022/12/27 07:57:32;;;;;;;3.27;2.70;;;6.30;99.90;;;;;;10331934;28;20656;-78
2022/12/27 08:02:34;;;;;;;5.93;2.37;;;6.40;99.90;;;;;;10313981;28;20215;-78
2022/12/27 08:07:37;;;;;;;3.70;2.93;;;6.50;99.90;;;;;;10328471;28;20652;-77
2022/12/27 08:12:40;;;;;;;4.13;2.03;;;6.50;99.90;;;;;;10333569;28;20214;-78
2022/12/27 08:17:42;;;;;;;3.30;3.00;;;6.60;99.90;;;;;;10344285;28;20202;-80
2022/12/27 08:22:45;;;;;;;3.10;2.80;;;6.70;99.90;;;;;;10348498;28;20246;-79
2022/12/27 08:27:48;;;;;;;3.50;3.20;;;6.70;99.90;;;;;;10347217;28;20211;-79
2022/12/27 08:32:50;;;;;;;3.60;2.47;;;6.70;99.90;;;;;;10348605;28;20207;-80
2022/12/27 08:37:53;;;;;;;3.00;2.80;;;6.70;99.90;;;;;;10347218;28;20195;-79
2022/12/27 08:42:57;;;;;;;3.03;2.83;;;6.80;99.90;;;;;;10346556;28;20303;-77
2022/12/27 08:47:59;;;;;;;6.00;2.20;;;6.90;99.90;;;;;;10326285;28;20237;-79
2022/12/27 08:53:03;;;;;;;7.50;4.83;;;6.90;99.90;;;;;;10348494;28;20219;-80
2022/12/27 08:58:06;;;;;;;5.00;3.50;;;7.00;99.90;;;;;;10349732;28;20225;-80
2022/12/27 09:03:09;;;;;;;2.60;1.77;;;7.00;99.90;;;;;;10351711;28;20198;-80
2022/12/27 09:08:11;;;;;;;2.90;2.27;;;7.00;99.90;;;;;;10350479;28;20234;-79
2022/12/27 09:13:14;;;;;;;3.30;3.10;;;7.00;99.90;;;;;;10347356;28;20745;-78
2022/12/27 09:18:16;;;;;;;4.73;3.57;;;7.00;99.90;;;;;;10341275;28;20211;-77
2022/12/27 09:23:18;;;;;;;3.90;3.57;;;7.10;99.90;;;;;;10340536;28;20193;-77
2022/12/27 09:28:22;;;;;;;3.33;3.03;;;7.10;99.90;;;;;;10336069;28;20211;-77
2022/12/27 09:33:24;;;;;;;3.30;3.10;;;7.10;99.90;;;;;;10335932;28;20215;-78
2022/12/27 09:38:26;;;;;;;3.80;2.63;;;7.20;99.90;;;;;;10339004;28;20251;-80
2022/12/27 09:43:39;;;;;;;7.13;2.50;;;7.30;99.90;;;;;;10338733;28;20200;-80
2022/12/27 09:48:41;;;;;;;3.73;3.10;;;7.30;99.90;;;;;;10339264;28;20219;-80
2022/12/27 09:53:47;;;;;;;4.90;3.60;;;7.40;99.90;;;;;;10341646;28;20239;-80
2022/12/27 09:58:52;;;;;;;3.67;3.10;;;7.50;99.90;;;;;;10336428;28;20211;-77
2022/12/27 10:03:54;;;;;;;3.20;2.93;;;7.60;99.90;;;;;;10331854;28;20187;-78
2022/12/27 10:09:01;;;;;;;4.23;2.87;;;7.70;99.90;;;;;;10333093;28;20683;-80
2022/12/27 10:14:16;;;;;;;3.57;3.30;;;7.70;99.90;;;;;;10330336;28;20221;-80
2022/12/27 10:19:29;;;;;;;4.80;3.20;;;7.80;99.90;;;;;;10337492;28;20219;-79
2022/12/27 10:24:38;;;;;;;3.57;2.97;;;7.80;99.90;;;;;;10330664;28;20272;-80
2022/12/27 10:29:42;;;;;;;3.50;3.20;;;7.90;99.90;;;;;;10309355;28;20230;-80
2022/12/27 10:34:44;;;;;;;2.93;2.50;;;8.00;99.90;;;;;;10339348;28;20266;-80
2022/12/27 10:39:47;;;;;;;2.93;2.60;;;8.00;99.90;;;;;;10339761;28;20227;-79
2022/12/27 10:44:50;;;;;;;4.20;2.73;;;8.10;99.90;;;;;;10334871;28;20198;-79
2022/12/27 10:50:04;;;;;;;3.10;2.80;;;8.10;99.90;;;;;;10336577;28;20745;-77
2022/12/27 10:55:32;;;;;;;8.27;3.50;;;8.20;99.90;;;;;;10332394;28;20290;-77
2022/12/27 11:00:36;;;;;;;4.50;4.10;;;8.30;99.90;;;;;;10324456;28;20222;-79
2022/12/27 11:05:39;;;;;;;6.00;3.53;;;8.40;99.90;;;;;;10311756;28;20199;-77
2022/12/27 11:10:41;;;;;;;2.87;2.63;;;8.50;99.90;;;;;;10329872;28;20572;-77
2022/12/27 11:15:55;;;;;;;3.23;2.87;;;8.60;99.90;;;;;;10331149;28;20289;-78
2022/12/27 11:20:59;;;;;;;3.23;2.57;;;8.70;99.90;;;;;;10330426;28;20580;-77
2022/12/27 11:26:04;;;;;;;2.80;2.60;;;8.70;99.90;;;;;;10330550;28;20634;-77
2022/12/27 11:31:12;;;;;;;3.30;2.40;;;8.70;99.90;;;;;;10314526;28;20231;-79
2022/12/27 11:36:23;;;;;;;3.07;2.50;;;8.70;99.90;;;;;;10330943;28;20287;-76
2022/12/27 11:41:36;;;;;;;3.10;2.90;;;8.80;99.90;;;;;;10323362;28;20258;-80
2022/12/27 11:46:43;;;;;;;5.77;2.70;;;8.80;99.90;;;;;;10331048;28;20230;-77
2022/12/27 11:52:02;;;;;;;3.17;2.80;;;8.80;99.90;;;;;;10338874;28;20282;-81
2022/12/27 11:57:19;;;;;;;3.40;2.80;;;8.90;99.90;;;;;;10348322;28;20202;-80
2022/12/27 12:02:33;;;;;;;3.30;3.00;;;8.90;99.90;;;;;;10334622;28;20214;-79
2022/12/27 12:07:59;;;;;;;2.50;2.30;;;9.10;99.90;;;;;;10303264;28;20234;-80
2022/12/27 12:13:33;;;;;;;4.67;2.80;;;9.20;99.90;;;;;;10341233;28;20227;-79
2022/12/27 12:18:49;;;;;;;3.13;2.80;;;9.40;99.90;;;;;;10315578;28;20621;-80
2022/12/27 12:24:14;;;;;;;2.73;2.30;;;9.40;99.90;;;;;;10335566;28;20659;-79
2022/12/27 12:29:34;;;;;;;3.30;2.80;;;9.50;99.90;;;;;;10317503;28;20686;-80
2022/12/27 12:34:52;;;;;;;4.40;4.00;;;9.40;99.90;;;;;;10337108;28;20687;-78
2022/12/27 12:40:09;;;;;;;3.23;2.93;;;9.40;99.90;;;;;;10337299;28;20279;-79
2022/12/27 12:45:27;;;;;;;4.17;3.53;;;9.50;99.90;;;;;;10320036;28;20206;-77
2022/12/27 12:50:51;;;;;;;3.57;3.20;;;9.50;99.90;;;;;;10327976;28;20690;-78
2022/12/27 12:56:18;;;;;;;8.27;5.53;;;9.70;99.90;;;;;;10316607;28;20582;-80
2022/12/27 13:01:35;;;;;;;6.17;3.00;;;9.90;99.90;;;;;;10314070;28;20239;-80
2022/12/27 13:07:11;;;;;;;3.07;2.43;;;10.00;99.90;;;;;;10346929;28;20195;-79
2022/12/27 13:12:18;;;;;;;6.13;3.60;;;10.10;99.90;;;;;;10378844;23;20261;-81
2022/12/27 13:17:25;;;;;;;2.97;2.70;;;10.10;99.90;;;;;;10367009;28;20194;-81
2022/12/27 13:22:45;;;;;;;3.40;2.83;;;10.10;99.90;;;;;;10365035;28;20277;-81
2022/12/27 13:27:58;;;;;;;4.73;3.20;;;10.00;99.90;;;;;;10362706;28;20630;-81
2022/12/27 13:33:14;;;;;;;3.53;2.70;;;10.00;99.90;;;;;;10365942;28;20313;-82
2022/12/27 13:38:29;;;;;;;4.37;3.70;;;9.90;99.90;;;;;;10355391;28;20202;-82
2022/12/27 13:43:49;;;;;;;2.73;2.50;;;9.80;99.90;;;;;;10353839;28;20677;-81
2022/12/27 13:49:05;;;;;;;3.27;2.97;;;9.80;99.90;;;;;;10359309;28;20219;-82
2022/12/27 13:54:49;;;;;;;2.73;2.53;;;9.70;99.90;;;;;;10352215;28;20242;-82
2022/12/27 14:00:09;;;;;;;5.37;2.20;;;9.70;99.90;;;;;;10364032;28;20725;-82
2022/12/27 14:05:38;;;;;;;3.63;2.70;;;9.60;99.90;;;;;;10357292;28;20602;-81
2022/12/27 14:10:46;;;;;;;4.00;2.63;;;9.50;99.90;;;;;;10348546;28;20231;-80
2022/12/27 14:16:16;;;;;;;4.70;2.97;;;9.50;99.90;;;;;;10354215;28;20219;-80
2022/12/27 14:21:46;;;;;;;2.70;2.43;;;9.50;99.90;;;;;;10374423;28;20219;-82
2022/12/27 14:27:30;;;;;;;2.90;2.60;;;9.50;99.90;;;;;;10377586;28;20202;-81
2022/12/27 14:33:24;;;;;;;3.40;2.77;;;9.40;99.90;;;;;;10287712;28;20233;-82
2022/12/27 14:38:47;;;;;;;3.63;2.80;;;9.30;99.90;;;;;;10335984;28;20260;-82
2022/12/27 14:44:27;;;;;;;4.00;3.07;;;9.20;99.90;;;;;;10366313;28;20636;-81
2022/12/27 14:50:15;;;;;;;10.97;3.10;;;9.20;99.90;;;;;;10349838;28;20226;-82
2022/12/27 14:55:38;;;;;;;5.40;2.90;;;9.10;99.90;;;;;;10303136;28;20226;-81
2022/12/27 15:01:01;;;;;;;4.97;3.60;;;9.10;99.90;;;;;;10351936;28;20211;-81
2022/12/27 15:06:13;;;;;;;4.63;3.00;;;9.00;99.90;;;;;;10348362;28;20254;-81
2022/12/27 15:11:32;;;;;;;7.43;3.23;;;8.90;99.90;;;;;;10358280;28;20233;-82
2022/12/27 15:16:48;;;;;;;3.60;3.00;;;8.80;99.90;;;;;;10356970;28;20324;-82
2022/12/27 15:22:01;;;;;;;3.93;3.53;;;8.70;99.90;;;;;;10339508;28;20268;-81
2022/12/27 15:27:16;;;;;;;4.47;3.37;;;8.60;99.90;;;;;;10373524;28;20213;-81
2022/12/27 15:32:30;;;;;;;6.23;3.20;;;8.50;99.90;;;;;;10340573;28;20215;-81
2022/12/27 15:37:52;;;;;;;6.37;3.20;;;8.40;99.90;;;;;;10344354;28;20196;-84
2022/12/27 15:43:00;;;;;;;3.23;2.93;;;8.20;99.90;;;;;;10368965;28;20210;-83
2022/12/27 15:48:37;;;;;;;2.40;2.20;;;8.10;99.90;;;;;;10321983;28;20294;-84
2022/12/27 15:54:05;;;;;;;2.93;2.73;;;7.90;99.90;;;;;;10374260;28;20619;-84
2022/12/27 15:59:37;;;;;;;2.70;2.50;;;7.80;99.90;;;;;;10366922;28;20694;-84
2022/12/27 16:04:48;;;;;;;2.77;2.57;;;7.70;99.90;;;;;;10318767;28;20214;-83
2022/12/27 16:09:52;;;;;;;3.53;3.00;;;7.60;99.90;;;;;;10376665;28;20238;-82
2022/12/27 16:15:32;;;;;;;6.70;3.67;;;7.50;99.90;;;;;;10348349;28;20206;-83
2022/12/27 16:20:36;;;;;;;5.90;3.50;;;7.40;99.90;;;;;;10351402;28;20230;-83
2022/12/27 16:25:40;;;;;;;3.63;3.33;;;7.30;99.90;;;;;;10373148;28;20196;-84
2022/12/27 16:30:46;;;;;;;4.00;3.70;;;7.30;99.90;;;;;;10358908;28;20682;-83
2022/12/27 16:36:12;;;;;;;6.07;3.13;;;7.20;99.90;;;;;;10389516;28;20666;-82
2022/12/27 16:41:27;;;;;;;4.17;3.80;;;7.20;99.90;;;;;;10369439;28;20234;-83
2022/12/27 16:46:51;;;;;;;5.70;3.50;;;7.10;99.90;;;;;;10354681;28;20190;-83
2022/12/27 16:52:06;;;;;;;6.50;4.87;;;7.10;99.90;;;;;;10364220;28;20314;-83
2022/12/27 16:57:39;;;;;;;6.33;4.63;;;7.10;99.90;;;;;;10352001;28;20655;-82
2022/12/27 17:02:44;;;;;;;11.00;7.50;;;7.20;99.90;;;;;;10365192;28;20215;-82
2022/12/27 17:08:13;;;;;;;13.73;6.10;;;7.10;99.90;;;;;;10379820;28;20198;-83
2022/12/27 17:13:20;;;;;;;8.00;7.10;;;7.10;99.90;;;;;;10374110;28;20265;-82
2022/12/27 17:18:28;;;;;;;7.73;6.87;;;7.10;99.90;;;;;;10364716;28;20579;-82
2022/12/27 17:23:31;;;;;;;8.83;6.90;;;7.10;99.90;;;;;;10355005;28;20191;-83
2022/12/27 17:28:39;;;;;;;7.17;6.47;;;7.00;99.90;;;;;;10365381;28;20227;-84
2022/12/27 17:33:58;;;;;;;13.07;7.90;;;6.90;99.90;;;;;;10368151;28;20222;-83
2022/12/27 17:46:27;;;;;;;;;;;;;;;;;;;;;
2022/12/27 17:57:55;;;;;;;8.20;6.13;;;6.60;99.90;;;;;;10355528;28;20294;-81
2022/12/27 18:03:24;;;;;;;7.00;6.37;;;6.60;99.90;;;;;;10352144;28;20743;-81
2022/12/27 18:08:31;;;;;;;6.70;6.13;;;6.50;99.90;;;;;;10372343;28;20223;-83
2022/12/27 18:13:44;;;;;;;11.03;7.83;;;6.40;99.90;;;;;;10383038;28;20306;-82
2022/12/27 18:18:53;;;;;;;9.67;7.20;;;6.40;99.90;;;;;;10381980;28;20215;-83
2022/12/27 18:24:37;;;;;;;11.13;8.60;;;6.30;99.90;;;;;;10385566;28;20256;-83
2022/12/27 18:29:44;;;;;;;11.50;9.10;;;6.20;99.90;;;;;;10354358;28;20226;-82
2022/12/27 18:34:52;;;;;;;8.53;7.20;;;6.20;99.90;;;;;;10368305;28;20313;-82
2022/12/27 18:39:56;;;;;;;11.60;10.50;;;6.10;99.90;;;;;;10381354;28;20282;-81
2022/12/27 18:45:02;;;;;;;9.77;8.67;;;6.10;99.90;;;;;;10382661;28;20195;-82
2022/12/27 18:50:15;;;;;;;10.53;9.47;;;6.10;99.90;;;;;;10373767;28;20218;-82
2022/12/27 18:55:25;;;;;;;19.03;16.43;;;6.00;99.90;;;;;;10363168;28;20257;-83
2022/12/27 19:00:28;;;;;;;82.00;62.40;;;6.00;99.90;;;;;;10370550;28;20230;-83
2022/12/27 19:05:31;;;;;;;16.80;14.70;;;6.00;99.90;;;;;;10357032;28;20294;-83
2022/12/27 19:10:33;;;;;;;14.10;12.10;;;6.00;99.90;;;;;;10362865;28;20234;-81
2022/12/27 19:15:40;;;;;;;11.20;10.00;;;6.00;99.90;;;;;;10359566;28;20296;-81
2022/12/27 19:20:53;;;;;;;9.10;8.20;;;6.00;99.90;;;;;;10366110;28;20224;-83
2022/12/27 19:26:04;;;;;;;9.60;8.70;;;6.00;99.90;;;;;;10364122;28;20195;-82
2022/12/27 19:31:18;;;;;;;18.30;15.20;;;6.00;99.90;;;;;;10338980;28;20238;-82
2022/12/27 19:36:26;;;;;;;18.70;15.93;;;6.00;99.90;;;;;;10353092;28;20222;-83
2022/12/27 19:41:42;;;;;;;52.70;36.07;;;5.90;99.90;;;;;;10359094;28;20230;-83
2022/12/27 19:47:00;;;;;;;12.97;11.57;;;5.90;99.90;;;;;;10356252;28;20202;-83
2022/12/27 19:52:08;;;;;;;9.00;8.10;;;5.80;99.90;;;;;;10355873;28;20237;-82
2022/12/27 19:57:13;;;;;;;13.30;12.00;;;5.70;99.90;;;;;;10354628;28;20207;-83
2022/12/27 20:02:22;;;;;;;15.30;13.70;;;5.70;99.90;;;;;;10364491;28;20229;-82
2022/12/27 20:07:28;;;;;;;13.70;12.33;;;5.60;99.90;;;;;;10347173;28;20730;-83
2022/12/27 20:12:34;;;;;;;11.93;10.10;;;5.60;99.90;;;;;;10374059;28;20225;-83
2022/12/27 20:17:42;;;;;;;10.77;9.73;;;5.60;99.90;;;;;;10364719;28;20198;-82
2022/12/27 20:22:58;;;;;;;20.57;18.40;;;5.60;99.90;;;;;;10332896;23;20230;-82
2022/12/27 20:28:06;;;;;;;12.70;11.30;;;5.60;99.90;;;;;;10321378;28;20199;-82
2022/12/27 20:33:17;;;;;;;25.90;22.50;;;5.50;99.90;;;;;;10271112;28;20239;-84
2022/12/27 20:38:26;;;;;;;12.17;10.97;;;5.50;99.90;;;;;;10276743;28;20207;-83
2022/12/27 20:43:28;;;;;;;12.10;11.00;;;5.50;99.90;;;;;;10287089;28;20206;-83
2022/12/27 20:48:37;;;;;;;11.67;10.67;;;5.40;99.90;;;;;;10315010;28;20282;-81
2022/12/27 20:53:42;;;;;;;10.50;9.53;;;5.40;99.90;;;;;;10304067;28;20250;-81
2022/12/27 20:58:44;;;;;;;9.80;8.90;;;5.40;99.90;;;;;;10296548;28;20220;-81
2022/12/27 21:03:46;;;;;;;8.97;8.20;;;5.40;99.90;;;;;;10298815;28;20204;-83
2022/12/27 21:08:50;;;;;;;10.20;9.30;;;5.40;99.90;;;;;;10289135;28;20758;-82
2022/12/27 21:13:53;;;;;;;8.93;8.03;;;5.50;99.90;;;;;;10290002;28;20236;-82
2022/12/27 21:18:56;;;;;;;8.23;7.00;;;5.60;99.90;;;;;;10300323;28;20239;-82
2022/12/27 21:23:59;;;;;;;7.23;6.57;;;5.70;99.90;;;;;;10291674;28;20251;-81
2022/12/27 21:29:03;;;;;;;6.53;6.03;;;5.80;99.90;;;;;;10295288;28;20294;-82
2022/12/27 21:34:06;;;;;;;6.40;5.80;;;5.90;99.90;;;;;;10282681;28;20263;-82
2022/12/27 21:39:10;;;;;;;7.70;6.40;;;6.00;99.90;;;;;;10296121;28;20215;-82
2022/12/27 21:44:12;;;;;;;7.60;6.90;;;6.00;99.90;;;;;;10303533;28;20216;-83
2022/12/27 21:49:14;;;;;;;9.80;8.13;;;6.00;99.90;;;;;;10275236;28;20224;-83
2022/12/27 21:54:18;;;;;;;7.93;7.20;;;5.90;99.90;;;;;;10263736;28;20258;-83
2022/12/27 21:59:25;;;;;;;8.27;7.57;;;6.00;99.90;;;;;;10302542;28;20568;-84
2022/12/27 22:04:30;;;;;;;7.93;7.13;;;5.90;99.90;;;;;;10291953;28;20516;-84
2022/12/27 22:09:36;;;;;;;11.03;8.40;;;6.00;99.90;;;;;;10266972;28;20224;-84
2022/12/27 22:14:39;;;;;;;9.73;7.13;;;6.00;99.90;;;;;;10263551;28;20248;-84
2022/12/27 22:19:43;;;;;;;7.77;7.07;;;6.00;99.90;;;;;;10282916;28;20252;-83
2022/12/27 22:24:56;;;;;;;7.57;6.87;;;6.00;99.90;;;;;;10318170;28;20191;-82
2022/12/27 22:30:03;;;;;;;8.70;6.67;;;6.00;99.90;;;;;;10325453;28;20228;-83
2022/12/27 22:35:06;;;;;;;6.60;5.97;;;6.00;99.90;;;;;;10282643;28;20314;-83
2022/12/27 22:40:14;;;;;;;8.20;7.40;;;6.00;99.90;;;;;;10298741;28;20219;-83
2022/12/27 22:45:19;;;;;;;11.63;7.27;;;6.10;99.90;;;;;;10312935;28;20211;-83
2022/12/27 22:50:24;;;;;;;7.17;6.60;;;6.10;99.90;;;;;;10290871;28;20227;-82
2022/12/27 22:55:28;;;;;;;8.17;7.47;;;6.10;99.90;;;;;;10309330;28;20302;-82
2022/12/27 23:00:32;;;;;;;5.37;4.80;;;6.10;99.90;;;;;;10282608;28;20604;-84
2022/12/27 23:05:35;;;;;;;6.33;5.50;;;6.10;99.90;;;;;;10299184;28;20239;-83
2022/12/27 23:10:38;;;;;;;8.03;7.23;;;6.00;99.90;;;;;;10286054;28;20259;-83
2022/12/27 23:15:40;;;;;;;11.53;7.80;;;6.10;99.90;;;;;;10284753;28;20220;-83
2022/12/27 23:20:44;;;;;;;9.00;5.67;;;6.10;99.90;;;;;;10290745;28;20232;-83
2022/12/27 23:25:47;;;;;;;7.67;6.93;;;6.10;99.90;;;;;;10282138;28;20201;-83
2022/12/27 23:30:50;;;;;;;6.47;5.87;;;6.20;99.90;;;;;;10266540;28;20219;-84
2022/12/27 23:35:52;;;;;;;7.03;6.20;;;6.30;99.90;;;;;;10296324;28;20218;-82
2022/12/27 23:40:56;;;;;;;10.00;9.00;;;6.40;99.90;;;;;;10301101;28;20228;-82
2022/12/27 23:46:05;;;;;;;8.30;7.60;;;6.40;99.90;;;;;;10261732;28;20208;-83
2022/12/27 23:51:08;;;;;;;8.23;7.47;;;6.50;99.90;;;;;;10281856;28;20609;-83
2022/12/27 23:56:15;;;;;;;7.20;6.50;;;6.60;99.90;;;;;;10295558;28;20220;-83
